Time;durP1;ratioP1;P1;durP2;ratioP2;P2;SDS_P1;SDS_P2;PMS_P1;PMS_P2;Temp;Humidity;BMP_temperature;BMP_pressure;BME280_temperature;BME280_humidity;BME280_pressure;Samples;Min_cycle;Max_cycle;Signal;HPM_P1;HPM_P2
2021/03/16 00:01:16;;;;;;;15.50;5.45;;;;;;;;;;4952826;27;20199;-80
2021/03/16 00:03:40;;;;;;;12.65;5.65;;;;;;;;;;4951177;27;20127;-80
2021/03/16 00:06:05;;;;;;;11.50;5.80;;;4.10;99.90;;;;;;4949550;27;20101;-81
2021/03/16 00:08:28;;;;;;;14.10;5.85;;;4.10;99.90;;;;;;4949503;27;20085;-80
2021/03/16 00:10:51;;;;;;;12.63;5.78;;;;;;;;;;4954560;27;20093;-81
2021/03/16 00:13:14;;;;;;;11.00;5.90;;;4.10;99.90;;;;;;4946851;27;20085;-81
2021/03/16 00:15:37;;;;;;;10.57;5.47;;;4.10;99.90;;;;;;4953883;27;20086;-80
2021/03/16 00:18:01;;;;;;;9.95;5.35;;;4.10;99.90;;;;;;4950316;27;20088;-81
2021/03/16 00:20:23;;;;;;;8.35;5.15;;;4.10;99.90;;;;;;4948920;27;20127;-81
2021/03/16 00:22:46;;;;;;;11.50;5.20;;;;;;;;;;4941688;27;20600;-81
2021/03/16 00:25:10;;;;;;;10.30;4.03;;;4.10;99.90;;;;;;4950684;27;20419;-81
2021/03/16 00:27:33;;;;;;;7.82;4.47;;;4.00;99.90;;;;;;4948732;27;20082;-80
2021/03/16 00:29:56;;;;;;;13.52;4.93;;;4.00;99.90;;;;;;4951155;27;20300;-81
2021/03/16 00:32:18;;;;;;;15.10;5.20;;;4.00;99.90;;;;;;4948284;27;20070;-82
2021/03/16 00:34:41;;;;;;;10.32;4.20;;;4.00;99.90;;;;;;4950283;27;20143;-81
2021/03/16 00:37:03;;;;;;;13.48;4.55;;;4.00;99.90;;;;;;4948828;27;20097;-80
2021/03/16 00:39:26;;;;;;;7.32;3.58;;;3.90;99.90;;;;;;4950044;27;20082;-81
2021/03/16 00:41:48;;;;;;;10.75;3.53;;;3.90;99.90;;;;;;4947807;27;20090;-81
2021/03/16 00:44:12;;;;;;;5.80;3.10;;;3.90;99.90;;;;;;4948270;27;20101;-81
2021/03/16 00:46:34;;;;;;;11.15;2.88;;;3.80;99.90;;;;;;4947445;27;20090;-81
2021/03/16 00:48:57;;;;;;;6.55;2.67;;;3.90;99.90;;;;;;4948086;27;20094;-80
2021/03/16 00:51:19;;;;;;;7.60;2.97;;;3.80;99.90;;;;;;4949604;27;20086;-80
2021/03/16 00:53:42;;;;;;;4.63;2.72;;;3.80;99.90;;;;;;4949171;27;20143;-81
2021/03/16 00:56:05;;;;;;;7.82;2.15;;;3.80;99.90;;;;;;4954792;27;20149;-81
2021/03/16 00:58:28;;;;;;;7.95;2.53;;;;;;;;;;4952392;27;20448;-81
2021/03/16 01:00:51;;;;;;;3.42;1.85;;;3.70;99.90;;;;;;4938111;27;20090;-82
2021/03/16 01:03:14;;;;;;;2.60;1.90;;;3.70;99.90;;;;;;4948684;27;20073;-80
2021/03/16 01:05:36;;;;;;;3.50;1.50;;;3.70;99.90;;;;;;4946153;27;20113;-82
2021/03/16 01:07:59;;;;;;;2.90;1.63;;;3.70;99.90;;;;;;4949960;27;20090;-82
2021/03/16 01:10:23;;;;;;;4.03;1.15;;;3.70;99.90;;;;;;4954437;27;20426;-82
2021/03/16 01:12:46;;;;;;;5.03;1.50;;;3.70;99.90;;;;;;4951229;27;20599;-81
2021/03/16 01:15:10;;;;;;;3.53;1.50;;;3.60;99.90;;;;;;4949573;27;20089;-82
2021/03/16 01:17:34;;;;;;;4.22;0.85;;;3.60;99.90;;;;;;4946251;27;20118;-81
2021/03/16 01:19:56;;;;;;;3.38;1.10;;;3.50;99.90;;;;;;4949267;27;20097;-81
2021/03/16 01:22:19;;;;;;;6.63;1.35;;;3.50;99.90;;;;;;4947421;27;20089;-81
2021/03/16 01:24:41;;;;;;;2.15;1.25;;;3.50;99.90;;;;;;4941703;27;20201;-81
2021/03/16 01:27:04;;;;;;;5.57;1.35;;;3.50;99.90;;;;;;4948399;27;20089;-81
2021/03/16 01:29:27;;;;;;;2.80;1.50;;;;;;;;;;4947451;27;20124;-83
2021/03/16 01:31:49;;;;;;;2.20;1.45;;;3.30;99.90;;;;;;4951065;27;20097;-81
2021/03/16 01:34:13;;;;;;;3.63;2.10;;;3.20;99.90;;;;;;4949267;27;20113;-82
2021/03/16 01:36:35;;;;;;;1.92;1.10;;;3.10;99.90;;;;;;4948740;27;20106;-81
2021/03/16 01:38:58;;;;;;;5.65;1.17;;;3.00;99.90;;;;;;4948477;27;20614;-81
2021/03/16 01:41:20;;;;;;;2.33;1.10;;;3.00;99.90;;;;;;4952773;27;20085;-79
2021/03/16 01:43:43;;;;;;;1.83;1.17;;;3.00;99.90;;;;;;4949018;27;20171;-80
2021/03/16 01:46:06;;;;;;;3.67;1.23;;;3.00;99.90;;;;;;4948010;27;20097;-80
2021/03/16 01:48:32;;;;;;;2.03;1.17;;;3.00;99.90;;;;;;4948533;27;20143;-79
2021/03/16 01:50:55;;;;;;;2.00;1.23;;;;;;;;;;4936526;27;20177;-79
2021/03/16 01:53:18;;;;;;;3.35;1.27;;;2.90;99.90;;;;;;4947610;27;20094;-80
2021/03/16 01:55:43;;;;;;;1.50;0.80;;;2.90;99.90;;;;;;4943516;27;20086;-80
2021/03/16 01:58:06;;;;;;;1.58;1.20;;;3.00;99.90;;;;;;4937163;27;20521;-80
2021/03/16 02:00:34;;;;;;;6.22;1.77;;;3.10;99.90;;;;;;4953370;27;20100;-80
2021/03/16 02:02:57;;;;;;;3.85;1.33;;;3.10;99.90;;;;;;4946863;27;20104;-81
2021/03/16 02:05:20;;;;;;;10.95;1.83;;;3.20;99.90;;;;;;4945829;27;20531;-80
2021/03/16 02:07:52;;;;;;;2.28;1.15;;;3.20;99.90;;;;;;4939801;27;20093;-80
2021/03/16 02:10:18;;;;;;;2.28;1.05;;;3.20;99.90;;;;;;4948406;27;20117;-79
2021/03/16 02:12:47;;;;;;;2.13;1.20;;;3.30;99.90;;;;;;4946644;27;20139;-80
2021/03/16 02:15:14;;;;;;;2.55;1.38;;;3.30;99.90;;;;;;4948100;27;20176;-80
2021/03/16 02:17:37;;;;;;;2.55;1.05;;;3.30;99.90;;;;;;4953195;27;20598;-82
2021/03/16 02:20:38;;;;;;;2.42;1.30;;;3.30;99.90;;;;;;4941037;27;20106;-80
2021/03/16 02:23:03;;;;;;;7.50;1.25;;;3.40;99.90;;;;;;4911120;27;20171;-80
2021/03/16 02:25:50;;;;;;;1.60;1.05;;;3.40;99.90;;;;;;4949023;27;20536;-80
2021/03/16 02:28:33;;;;;;;4.60;1.40;;;3.40;99.90;;;;;;4948433;27;20116;-81
2021/03/16 02:30:57;;;;;;;2.20;1.58;;;3.40;99.90;;;;;;4948684;27;20198;-81
2021/03/16 02:33:24;;;;;;;2.33;1.33;;;3.40;99.90;;;;;;4947537;27;20129;-80
2021/03/16 02:35:50;;;;;;;3.83;1.55;;;3.40;99.90;;;;;;4946446;27;20082;-83
2021/03/16 02:38:15;;;;;;;5.15;1.27;;;3.40;99.90;;;;;;4935797;27;20120;-79
2021/03/16 02:40:39;;;;;;;5.45;0.70;;;3.40;99.90;;;;;;4952573;27;20085;-82
2021/03/16 02:43:03;;;;;;;7.88;1.33;;;3.40;99.90;;;;;;4949081;27;20487;-81
2021/03/16 02:45:26;;;;;;;3.88;1.20;;;3.30;99.90;;;;;;4945906;27;20089;-80
2021/03/16 02:47:51;;;;;;;2.45;1.05;;;3.40;99.90;;;;;;4946488;27;20100;-81
2021/03/16 02:50:17;;;;;;;1.83;1.10;;;3.40;99.90;;;;;;4938635;27;20082;-80
2021/03/16 02:52:41;;;;;;;1.90;0.85;;;3.30;99.90;;;;;;4947046;27;20139;-82
2021/03/16 02:55:05;;;;;;;3.17;1.00;;;3.30;99.90;;;;;;4946804;27;20106;-82
2021/03/16 02:57:28;;;;;;;4.82;1.27;;;;;;;;;;4946663;27;20093;-81
2021/03/16 02:59:52;;;;;;;3.78;0.88;;;3.30;99.90;;;;;;4946907;27;20195;-81
2021/03/16 03:02:16;;;;;;;4.20;1.10;;;3.20;99.90;;;;;;4937504;27;20086;-80
2021/03/16 03:04:42;;;;;;;1.75;0.98;;;3.20;99.90;;;;;;4946351;27;20121;-80
2021/03/16 03:07:05;;;;;;;3.83;1.20;;;3.20;99.90;;;;;;4945246;27;20097;-80
2021/03/16 03:09:29;;;;;;;4.85;1.08;;;3.20;99.90;;;;;;4940159;27;20101;-80
2021/03/16 03:11:51;;;;;;;1.17;0.90;;;3.10;99.90;;;;;;4936078;27;20082;-81
2021/03/16 03:14:15;;;;;;;2.05;0.73;;;3.20;99.90;;;;;;4948593;27;20140;-81
2021/03/16 03:16:37;;;;;;;1.52;1.15;;;3.10;99.90;;;;;;4945059;27;20090;-82
2021/03/16 03:19:01;;;;;;;1.42;1.00;;;3.10;99.90;;;;;;4950481;27;20097;-81
2021/03/16 03:21:30;;;;;;;4.82;1.30;;;3.10;99.90;;;;;;4950791;27;20086;-80
2021/03/16 03:24:00;;;;;;;1.38;1.00;;;3.00;99.90;;;;;;4937139;27;20117;-82
2021/03/16 03:26:42;;;;;;;2.63;0.90;;;3.00;99.90;;;;;;4950078;27;20079;-81
2021/03/16 03:29:07;;;;;;;2.10;1.13;;;3.00;99.90;;;;;;4948808;27;20484;-81
2021/03/16 03:31:31;;;;;;;;;;;3.00;99.90;;;;;;4948350;27;20134;-82
2021/03/16 03:33:55;;;;;;;1.50;1.13;;;3.00;99.90;;;;;;4945976;27;20061;-82
2021/03/16 03:36:18;;;;;;;3.25;1.50;;;3.00;99.90;;;;;;4949187;27;20498;-81
2021/03/16 03:38:42;;;;;;;2.78;1.00;;;2.90;99.90;;;;;;4941456;27;20091;-82
2021/03/16 03:41:06;;;;;;;2.38;1.13;;;3.00;99.90;;;;;;4951665;27;20105;-81
2021/03/16 03:43:32;;;;;;;2.00;1.20;;;3.00;99.90;;;;;;4953337;27;20096;-82
2021/03/16 03:45:56;;;;;;;3.08;1.50;;;3.00;99.90;;;;;;4949025;27;20082;-80
2021/03/16 03:48:22;;;;;;;5.82;1.30;;;3.00;99.90;;;;;;4948576;27;21146;-82
2021/03/16 03:50:49;;;;;;;2.08;1.38;;;3.00;99.90;;;;;;4950533;27;20124;-82
2021/03/16 03:53:13;;;;;;;1.90;1.23;;;3.00;99.90;;;;;;4950830;27;20477;-81
2021/03/16 03:55:38;;;;;;;1.80;1.00;;;2.90;99.90;;;;;;4948606;27;20518;-82
2021/03/16 03:58:03;;;;;;;2.72;1.10;;;2.90;99.90;;;;;;4948111;27;20094;-81
2021/03/16 04:00:27;;;;;;;2.50;1.60;;;3.00;99.90;;;;;;4949252;27;20711;-82
2021/03/16 04:02:51;;;;;;;1.30;0.98;;;3.00;99.90;;;;;;4949095;27;20078;-82
2021/03/16 04:05:15;;;;;;;1.90;1.25;;;3.00;99.90;;;;;;4948997;27;20151;-81
2021/03/16 04:07:39;;;;;;;5.20;1.42;;;3.00;99.90;;;;;;4949709;27;20443;-82
2021/03/16 04:10:01;;;;;;;2.28;1.35;;;3.00;99.90;;;;;;4955465;27;20093;-82
2021/03/16 04:12:26;;;;;;;2.20;1.25;;;3.00;99.90;;;;;;4949900;27;20081;-81
2021/03/16 04:14:49;;;;;;;4.38;1.63;;;3.00;99.90;;;;;;4950934;27;20147;-81
2021/03/16 04:17:11;;;;;;;2.25;1.33;;;3.00;99.90;;;;;;4948623;27;20116;-82
2021/03/16 04:19:37;;;;;;;2.80;1.67;;;3.10;99.90;;;;;;4948194;27;20093;-82
2021/03/16 04:22:00;;;;;;;2.10;1.30;;;3.00;99.90;;;;;;4949125;27;20124;-82
2021/03/16 04:24:23;;;;;;;3.58;1.40;;;3.00;99.90;;;;;;4944794;27;20097;-82
2021/03/16 04:26:47;;;;;;;3.53;1.17;;;3.00;99.90;;;;;;4933311;27;20094;-82
2021/03/16 04:29:12;;;;;;;0.95;0.60;;;3.00;99.90;;;;;;4950644;27;20389;-82
2021/03/16 04:31:35;;;;;;;5.40;1.40;;;3.00;99.90;;;;;;4949441;27;20089;-82
2021/03/16 04:33:57;;;;;;;1.27;1.00;;;2.90;99.90;;;;;;4949315;27;20101;-82
2021/03/16 04:36:20;;;;;;;1.33;0.93;;;2.90;99.90;;;;;;4949083;27;20147;-82
2021/03/16 04:38:43;;;;;;;2.35;1.65;;;;;;;;;;4948219;27;20481;-81
2021/03/16 04:41:05;;;;;;;9.18;1.65;;;2.90;99.90;;;;;;4949155;27;20112;-81
2021/03/16 04:43:28;;;;;;;2.20;0.93;;;2.90;99.90;;;;;;4950052;27;20116;-82
2021/03/16 04:45:51;;;;;;;2.25;1.30;;;2.90;99.90;;;;;;4951587;27;20430;-82
2021/03/16 04:48:14;;;;;;;3.75;1.50;;;2.80;99.90;;;;;;4930298;27;20086;-81
2021/03/16 04:50:36;;;;;;;6.40;1.75;;;2.80;99.90;;;;;;4947604;27;20701;-81
2021/03/16 04:52:59;;;;;;;5.95;1.73;;;2.80;99.90;;;;;;4947961;27;20097;-82
2021/03/16 04:55:21;;;;;;;2.88;1.30;;;2.80;99.90;;;;;;4947891;27;20097;-81
2021/03/16 04:57:44;;;;;;;4.00;1.80;;;2.80;99.90;;;;;;4940326;27;20169;-81
2021/03/16 05:00:08;;;;;;;6.38;1.30;;;2.80;99.90;;;;;;4946153;27;20115;-81
2021/03/16 05:02:32;;;;;;;3.88;1.70;;;2.80;99.90;;;;;;4951016;27;20082;-82
2021/03/16 05:04:54;;;;;;;5.75;1.73;;;2.80;99.90;;;;;;4949130;27;20173;-82
2021/03/16 05:07:17;;;;;;;4.10;2.10;;;2.80;99.90;;;;;;4951601;27;20167;-81
2021/03/16 05:09:40;;;;;;;3.05;1.90;;;2.80;99.90;;;;;;4948502;27;20101;-82
2021/03/16 05:12:03;;;;;;;4.18;2.00;;;2.80;99.90;;;;;;4948394;27;20138;-83
2021/03/16 05:14:26;;;;;;;7.60;3.13;;;2.80;99.90;;;;;;4947568;27;20097;-82
2021/03/16 05:16:48;;;;;;;6.85;2.03;;;2.80;99.90;;;;;;4949911;27;20083;-83
2021/03/16 05:19:12;;;;;;;8.13;2.53;;;2.80;99.90;;;;;;4949463;27;20097;-82
2021/03/16 05:21:34;;;;;;;4.45;2.38;;;2.80;99.90;;;;;;4947886;27;20090;-81
2021/03/16 05:23:57;;;;;;;11.50;2.50;;;2.80;99.90;;;;;;4949172;27;20719;-82
2021/03/16 05:26:19;;;;;;;8.35;2.45;;;;;;;;;;4937840;27;20543;-81
2021/03/16 05:28:42;;;;;;;5.45;1.58;;;2.80;99.90;;;;;;4946305;27;20094;-82
2021/03/16 05:31:04;;;;;;;8.68;2.45;;;1.50;99.90;;;;;;4945019;27;20541;-82
2021/03/16 05:33:29;;;;;;;7.30;2.60;;;2.70;99.90;;;;;;4951750;27;20460;-84
2021/03/16 05:35:52;;;;;;;4.23;2.33;;;2.80;99.90;;;;;;4948276;27;20086;-81
2021/03/16 05:38:15;;;;;;;6.80;3.30;;;2.80;99.90;;;;;;4939972;27;20494;-81
2021/03/16 05:40:38;;;;;;;11.18;2.75;;;2.80;99.90;;;;;;4948182;27;20105;-82
2021/03/16 05:43:02;;;;;;;5.57;2.63;;;;;;;;;;4948094;27;20098;-82
2021/03/16 05:45:25;;;;;;;3.95;2.30;;;2.80;99.90;;;;;;4948341;27;20559;-83
2021/03/16 05:47:48;;;;;;;5.63;2.75;;;2.80;99.90;;;;;;4947412;27;20094;-83
2021/03/16 05:50:11;;;;;;;3.45;1.95;;;;;;;;;;4948227;27;20136;-83
2021/03/16 05:52:35;;;;;;;3.42;2.05;;;;;;;;;;4949269;27;20089;-81
2021/03/16 05:54:58;;;;;;;4.03;2.42;;;2.80;99.90;;;;;;4947628;27;20088;-83
2021/03/16 05:57:21;;;;;;;7.97;2.20;;;2.80;99.90;;;;;;4947804;27;20085;-82
2021/03/16 05:59:44;;;;;;;6.65;3.22;;;2.80;99.90;;;;;;4947012;27;20085;-82
2021/03/16 06:02:06;;;;;;;4.65;2.38;;;2.80;99.90;;;;;;4945216;27;20434;-83
2021/03/16 06:04:29;;;;;;;8.02;2.63;;;2.80;99.90;;;;;;4947162;27;20546;-82
2021/03/16 06:06:52;;;;;;;4.10;2.35;;;2.80;99.90;;;;;;4946939;27;20086;-82
2021/03/16 06:09:15;;;;;;;5.18;2.08;;;2.80;99.90;;;;;;4946731;27;20144;-82
2021/03/16 06:11:47;;;;;;;6.05;2.95;;;2.80;99.90;;;;;;4945594;27;20147;-81
2021/03/16 06:14:09;;;;;;;5.50;2.50;;;2.80;99.90;;;;;;4946011;27;20111;-82
2021/03/16 06:16:35;;;;;;;3.55;1.95;;;2.80;99.90;;;;;;4946986;27;20452;-81
2021/03/16 06:18:58;;;;;;;7.30;2.30;;;2.90;99.90;;;;;;4949975;27;20131;-82
2021/03/16 06:21:22;;;;;;;5.97;2.47;;;2.90;99.90;;;;;;4949290;27;20077;-83
2021/03/16 06:23:52;;;;;;;8.68;2.65;;;2.90;99.90;;;;;;4948764;27;20567;-83
2021/03/16 06:26:16;;;;;;;6.07;2.25;;;;;;;;;;4948357;27;20165;-83
2021/03/16 06:28:41;;;;;;;12.00;2.33;;;2.90;99.90;;;;;;4947390;27;20117;-83
2021/03/16 06:31:04;;;;;;;6.65;3.03;;;2.90;99.90;;;;;;4946306;27;20105;-82
2021/03/16 06:33:29;;;;;;;9.15;2.53;;;2.90;99.90;;;;;;4947762;27;20113;-83
2021/03/16 06:35:58;;;;;;;11.43;2.38;;;2.90;99.90;;;;;;4947250;27;20455;-83
2021/03/16 06:38:20;;;;;;;13.95;3.08;;;2.90;99.90;;;;;;4948464;27;20128;-83
2021/03/16 06:40:43;;;;;;;7.80;3.25;;;2.90;99.90;;;;;;4941760;27;20115;-81
2021/03/16 06:43:09;;;;;;;7.53;2.80;;;2.90;99.90;;;;;;4954109;27;20089;-82
2021/03/16 06:45:33;;;;;;;10.85;2.80;;;2.90;99.90;;;;;;4947083;27;20083;-84
2021/03/16 06:47:55;;;;;;;5.18;2.53;;;3.00;99.90;;;;;;4946680;27;20093;-83
2021/03/16 06:50:28;;;;;;;5.88;2.88;;;3.00;99.90;;;;;;4946793;27;20139;-82
2021/03/16 06:52:51;;;;;;;7.13;2.08;;;3.00;99.90;;;;;;4947679;27;20081;-83
2021/03/16 06:55:16;;;;;;;4.03;1.92;;;3.10;99.90;;;;;;4947071;27;20548;-82
2021/03/16 06:57:38;;;;;;;4.13;2.30;;;3.10;99.90;;;;;;4945893;27;20139;-83
2021/03/16 07:00:07;;;;;;;4.57;2.17;;;3.10;99.90;;;;;;4943474;27;20082;-81
2021/03/16 07:02:31;;;;;;;4.80;2.40;;;3.10;99.90;;;;;;4948919;27;20085;-83
2021/03/16 07:04:54;;;;;;;3.40;2.03;;;3.10;99.90;;;;;;4957741;27;20134;-83
2021/03/16 07:07:21;;;;;;;6.53;2.40;;;3.10;99.90;;;;;;4943693;27;20827;-83
2021/03/16 07:09:46;;;;;;;4.13;2.20;;;3.10;99.90;;;;;;4954280;27;20074;-83
2021/03/16 07:12:12;;;;;;;6.18;2.70;;;3.10;99.90;;;;;;4950720;27;20086;-83
2021/03/16 07:14:36;;;;;;;5.22;2.42;;;3.20;99.90;;;;;;4947629;27;20086;-83
2021/03/16 07:17:02;;;;;;;9.48;2.67;;;3.20;99.90;;;;;;4939777;27;20532;-83
2021/03/16 07:19:28;;;;;;;10.25;2.55;;;3.20;99.90;;;;;;4949712;27;20086;-82
2021/03/16 07:21:52;;;;;;;2.75;1.95;;;3.20;99.90;;;;;;4950524;27;20097;-83
2021/03/16 07:24:18;;;;;;;5.75;2.30;;;3.30;99.90;;;;;;4944006;27;20143;-83
2021/03/16 07:26:41;;;;;;;7.75;2.75;;;3.40;99.90;;;;;;4946260;27;20459;-82
2021/03/16 07:29:05;;;;;;;5.63;2.70;;;3.30;99.90;;;;;;4945918;27;20139;-82
2021/03/16 07:31:28;;;;;;;5.03;2.35;;;3.40;99.90;;;;;;4950232;27;20115;-81
2021/03/16 07:33:53;;;;;;;4.25;2.58;;;3.40;99.90;;;;;;4949161;27;20114;-83
2021/03/16 07:36:16;;;;;;;4.55;2.72;;;3.40;99.90;;;;;;4938250;27;20078;-82
2021/03/16 07:38:40;;;;;;;7.78;2.30;;;3.30;99.90;;;;;;4953114;27;20094;-83
2021/03/16 07:41:05;;;;;;;6.78;2.22;;;3.30;99.90;;;;;;4947335;27;20082;-84
2021/03/16 07:43:36;;;;;;;4.57;2.30;;;3.50;99.90;;;;;;4948868;27;20507;-84
2021/03/16 07:46:08;;;;;;;5.63;2.38;;;3.50;99.90;;;;;;4946800;27;20086;-83
2021/03/16 07:48:31;;;;;;;3.85;2.10;;;3.40;99.90;;;;;;4946806;27;20554;-81
2021/03/16 07:50:56;;;;;;;3.42;2.10;;;3.50;99.90;;;;;;4946317;27;20230;-82
2021/03/16 07:53:26;;;;;;;4.30;2.20;;;3.50;99.90;;;;;;4943921;27;20178;-82
2021/03/16 07:55:49;;;;;;;6.57;2.50;;;3.40;99.90;;;;;;4941807;27;20169;-82
2021/03/16 07:58:12;;;;;;;6.45;2.20;;;3.50;99.90;;;;;;4950223;27;20139;-82
2021/03/16 08:00:35;;;;;;;5.53;2.38;;;3.60;99.90;;;;;;4945634;27;20085;-83
2021/03/16 08:02:59;;;;;;;3.95;2.03;;;3.60;99.90;;;;;;4945934;27;20105;-82
2021/03/16 08:05:23;;;;;;;4.43;2.05;;;3.70;99.90;;;;;;4947380;27;20606;-83
2021/03/16 08:07:46;;;;;;;4.03;2.10;;;3.60;99.90;;;;;;4950606;27;20096;-82
2021/03/16 08:10:12;;;;;;;2.92;1.77;;;3.70;99.90;;;;;;4949336;27;20089;-82
2021/03/16 08:12:34;;;;;;;8.13;2.40;;;3.60;99.90;;;;;;4948371;27;20094;-84
2021/03/16 08:15:10;;;;;;;3.17;1.45;;;3.60;99.90;;;;;;4948921;27;20101;-84
2021/03/16 08:17:34;;;;;;;;;;;3.60;99.90;;;;;;4949567;27;20098;-82
2021/03/16 08:19:56;;;;;;;3.80;1.83;;;3.60;99.90;;;;;;4956575;27;20017;-83
2021/03/16 08:22:21;;;;;;;5.45;1.95;;;3.70;99.90;;;;;;4946927;27;20109;-83
2021/03/16 08:24:45;;;;;;;3.88;1.98;;;3.60;99.90;;;;;;4947120;27;20123;-82
2021/03/16 08:27:12;;;;;;;4.15;2.40;;;3.60;99.90;;;;;;4954102;27;20086;-83
2021/03/16 08:29:34;;;;;;;4.15;1.88;;;3.70;99.90;;;;;;4948876;27;20093;-83
2021/03/16 08:31:59;;;;;;;3.90;1.38;;;3.60;99.90;;;;;;4949187;27;20101;-82
2021/03/16 08:34:22;;;;;;;2.25;1.52;;;3.50;99.90;;;;;;4950794;27;20094;-83
2021/03/16 08:36:45;;;;;;;4.95;1.92;;;;;;;;;;4950557;27;20113;-84
2021/03/16 08:39:09;;;;;;;4.05;1.60;;;3.60;99.90;;;;;;4949539;27;20089;-84
2021/03/16 08:41:33;;;;;;;2.88;1.45;;;3.50;99.90;;;;;;4953367;27;20109;-84
2021/03/16 08:43:55;;;;;;;2.50;1.63;;;3.60;99.90;;;;;;4951684;27;20090;-83
2021/03/16 08:46:28;;;;;;;3.45;1.80;;;3.60;99.90;;;;;;4953828;27;20105;-84
2021/03/16 08:48:51;;;;;;;2.50;1.50;;;3.60;99.90;;;;;;4947589;27;20093;-84
2021/03/16 08:51:13;;;;;;;2.58;1.40;;;3.60;99.90;;;;;;4952893;27;20090;-83
2021/03/16 08:53:36;;;;;;;2.00;1.35;;;3.60;99.90;;;;;;4948831;27;20090;-83
2021/03/16 08:55:59;;;;;;;2.95;1.08;;;3.60;99.90;;;;;;4943040;27;20448;-84
2021/03/16 08:58:22;;;;;;;2.85;1.40;;;3.60;99.90;;;;;;4959328;27;20479;-82
2021/03/16 09:00:59;;;;;;;2.45;1.20;;;3.60;99.90;;;;;;4938663;27;20118;-84
2021/03/16 09:03:30;;;;;;;3.00;1.42;;;3.60;99.90;;;;;;4896247;27;20085;-81
2021/03/16 09:05:55;;;;;;;3.72;1.20;;;3.60;99.90;;;;;;4909357;27;20085;-81
2021/03/16 09:08:42;;;;;;;6.15;1.45;;;3.70;99.90;;;;;;4898185;27;20086;-84
2021/03/16 09:11:05;;;;;;;5.03;0.70;;;3.70;99.90;;;;;;4917061;27;20089;-81
2021/03/16 09:13:51;;;;;;;2.15;1.00;;;3.60;99.90;;;;;;4901983;27;20888;-82
2021/03/16 09:17:03;;;;;;;4.03;1.45;;;3.60;99.90;;;;;;4915671;27;20093;-84
2021/03/16 09:23:21;;;;;;;1.48;0.63;;;3.60;99.90;;;;;;4883476;27;20089;-83
2021/03/16 09:26:16;;;;;;;1.15;0.85;;;3.70;99.90;;;;;;4888040;27;20096;-83
2021/03/16 09:41:36;;;;;;;1.85;0.63;;;3.70;99.90;;;;;;4891373;27;20086;-85
2021/03/16 09:44:07;;;;;;;5.50;0.80;;;3.70;99.90;;;;;;4893124;27;20492;-83
2021/03/16 09:53:46;;;;;;;0.57;0.57;;;3.80;99.90;;;;;;4883387;27;20136;-82
2021/03/16 09:56:42;;;;;;;13.63;0.70;;;3.90;99.90;;;;;;4893517;27;20105;-82
2021/03/16 10:06:13;;;;;;;1.10;0.40;;;3.90;99.90;;;;;;4893049;27;20114;-83
2021/03/16 10:08:56;;;;;;;0.82;0.60;;;3.90;99.90;;;;;;4891043;27;20090;-82
2021/03/16 10:11:33;;;;;;;0.95;0.40;;;3.90;99.90;;;;;;4883756;27;20085;-83
2021/03/16 10:17:51;;;;;;;0.52;0.40;;;;;;;;;;4903046;27;20078;-83
2021/03/16 10:23:34;;;;;;;0.60;0.40;;;4.10;99.90;;;;;;4907094;27;20086;-82
2021/03/16 10:26:01;;;;;;;2.03;0.70;;;4.10;99.90;;;;;;4904934;27;20623;-84
2021/03/16 10:28:41;;;;;;;0.85;0.57;;;4.20;99.90;;;;;;4905758;27;20089;-82
2021/03/16 10:31:42;;;;;;;1.40;0.57;;;4.20;99.90;;;;;;4907094;27;20100;-81
2021/03/16 10:34:04;;;;;;;2.60;0.32;;;4.20;99.90;;;;;;4896390;27;20104;-83
2021/03/16 10:37:08;;;;;;;0.85;0.50;;;4.20;99.90;;;;;;4908262;27;20489;-82
2021/03/16 10:43:29;;;;;;;0.82;0.40;;;4.40;99.90;;;;;;4900029;27;20163;-81
2021/03/16 10:46:13;;;;;;;0.70;0.40;;;4.40;99.90;;;;;;4892432;27;20561;-83
2021/03/16 10:48:39;;;;;;;0.85;0.40;;;4.60;99.90;;;;;;4901925;27;20085;-83
2021/03/16 10:51:03;;;;;;;0.50;0.40;;;4.60;99.90;;;;;;4912437;27;20160;-83
2021/03/16 10:53:26;;;;;;;0.40;0.38;;;4.70;99.90;;;;;;4917339;27;20094;-82
2021/03/16 10:55:49;;;;;;;1.48;0.35;;;4.80;99.90;;;;;;4952977;27;20090;-83
2021/03/16 10:58:12;;;;;;;1.13;0.60;;;4.90;99.90;;;;;;4954629;27;20093;-84
2021/03/16 11:00:35;;;;;;;0.50;0.35;;;4.90;99.90;;;;;;4952995;27;20101;-83
2021/03/16 11:02:58;;;;;;;0.52;0.30;;;4.80;99.90;;;;;;4953246;27;20132;-82
2021/03/16 11:05:20;;;;;;;0.32;0.30;;;4.80;99.90;;;;;;4954983;27;20540;-81
2021/03/16 11:07:43;;;;;;;0.68;0.40;;;4.80;99.90;;;;;;4954722;27;20127;-84
2021/03/16 11:10:06;;;;;;;0.30;0.30;;;4.80;99.90;;;;;;4953187;27;20093;-84
2021/03/16 11:12:29;;;;;;;1.30;0.57;;;4.80;99.90;;;;;;4952357;27;20086;-83
2021/03/16 11:14:52;;;;;;;0.43;0.43;;;4.60;99.90;;;;;;4953237;27;20571;-83
2021/03/16 11:17:15;;;;;;;0.40;0.40;;;4.50;99.90;;;;;;4954848;27;20109;-83
2021/03/16 11:19:37;;;;;;;0.57;0.50;;;4.40;99.90;;;;;;4955587;27;20455;-83
2021/03/16 11:22:00;;;;;;;0.90;0.70;;;4.50;99.90;;;;;;4953676;27;20134;-84
2021/03/16 11:24:22;;;;;;;3.85;0.70;;;4.40;99.90;;;;;;4953380;27;20097;-85
2021/03/16 11:26:45;;;;;;;0.57;0.57;;;4.50;99.90;;;;;;4952990;27;20526;-83
2021/03/16 11:29:07;;;;;;;0.68;0.60;;;4.50;99.90;;;;;;4956454;27;20089;-83
2021/03/16 11:31:31;;;;;;;6.15;0.77;;;4.50;99.90;;;;;;4936431;27;20661;-82
2021/03/16 11:33:53;;;;;;;1.13;0.60;;;4.40;99.90;;;;;;4958647;27;20077;-84
2021/03/16 11:36:16;;;;;;;1.30;0.68;;;4.30;99.90;;;;;;4952146;27;20127;-84
2021/03/16 11:38:38;;;;;;;1.52;0.90;;;4.20;99.90;;;;;;4941070;27;20162;-84
2021/03/16 11:41:01;;;;;;;2.08;0.80;;;4.20;99.90;;;;;;4953421;27;20519;-82
2021/03/16 11:43:24;;;;;;;0.63;0.60;;;4.20;99.90;;;;;;4956805;27;20435;-81
2021/03/16 11:45:47;;;;;;;2.17;1.00;;;4.20;99.90;;;;;;4954718;27;20097;-84
2021/03/16 11:48:10;;;;;;;2.55;0.98;;;4.10;99.90;;;;;;4949429;27;20113;-83
2021/03/16 11:50:33;;;;;;;0.82;0.65;;;4.20;99.90;;;;;;4954313;27;20452;-84
2021/03/16 11:52:58;;;;;;;1.77;0.70;;;4.20;99.90;;;;;;4957013;27;20109;-83
2021/03/16 11:55:20;;;;;;;5.45;1.15;;;4.20;99.90;;;;;;4955065;27;20090;-83
2021/03/16 11:57:44;;;;;;;1.95;0.45;;;4.20;99.90;;;;;;4959455;27;20142;-84
2021/03/16 12:00:08;;;;;;;2.55;0.80;;;4.10;99.90;;;;;;4954678;27;20085;-83
2021/03/16 12:02:30;;;;;;;1.33;0.73;;;4.10;99.90;;;;;;4955568;27;20086;-82
2021/03/16 12:04:54;;;;;;;0.73;0.50;;;;;;;;;;4958494;27;20090;-83
2021/03/16 12:07:16;;;;;;;1.98;0.77;;;4.20;99.90;;;;;;4954765;27;20089;-83
2021/03/16 12:09:39;;;;;;;0.88;0.70;;;4.20;99.90;;;;;;4945284;27;20094;-84
2021/03/16 12:12:01;;;;;;;1.17;0.55;;;4.20;99.90;;;;;;4956969;27;20524;-83
2021/03/16 12:14:24;;;;;;;1.15;0.60;;;4.20;99.90;;;;;;4949999;27;20100;-81
2021/03/16 12:16:47;;;;;;;0.90;0.43;;;;;;;;;;4960949;27;20101;-83
2021/03/16 12:19:09;;;;;;;1.48;0.40;;;4.50;99.90;;;;;;4956207;27;20180;-84
2021/03/16 12:21:32;;;;;;;0.90;0.57;;;4.50;99.90;;;;;;4956762;27;20134;-84
2021/03/16 12:23:57;;;;;;;0.40;0.40;;;;;;;;;;4959744;27;20143;-82
2021/03/16 12:26:20;;;;;;;0.37;0.30;;;4.40;99.90;;;;;;4957367;27;20115;-82
2021/03/16 12:28:42;;;;;;;2.28;0.35;;;4.40;99.90;;;;;;4954842;27;20496;-80
2021/03/16 12:31:05;;;;;;;1.95;0.45;;;4.40;99.90;;;;;;4956240;27;20100;-82
2021/03/16 12:33:27;;;;;;;0.50;0.35;;;4.40;99.90;;;;;;4955328;27;20096;-82
2021/03/16 12:35:51;;;;;;;1.38;0.50;;;4.50;99.90;;;;;;4955622;27;20547;-81
2021/03/16 12:38:15;;;;;;;0.82;0.40;;;4.60;99.90;;;;;;4953130;27;20595;-81
2021/03/16 12:40:41;;;;;;;1.15;0.50;;;4.60;99.90;;;;;;4965950;27;20085;-82
2021/03/16 12:43:03;;;;;;;0.95;0.60;;;4.60;99.90;;;;;;4952424;27;20081;-81
2021/03/16 12:45:27;;;;;;;1.85;0.50;;;4.50;99.90;;;;;;4954521;27;20094;-80
2021/03/16 12:47:51;;;;;;;0.55;0.50;;;4.50;99.90;;;;;;4952692;27;20112;-83
2021/03/16 12:50:14;;;;;;;0.50;0.50;;;4.40;99.90;;;;;;4955981;27;20118;-82
2021/03/16 12:52:36;;;;;;;1.00;0.70;;;4.50;99.90;;;;;;4956491;27;20086;-81
2021/03/16 12:55:00;;;;;;;0.95;0.45;;;4.60;99.90;;;;;;4956605;27;20445;-81
2021/03/16 12:57:22;;;;;;;1.25;0.57;;;4.50;99.90;;;;;;4960363;27;20129;-81
2021/03/16 12:59:45;;;;;;;1.25;0.70;;;4.50;99.90;;;;;;4959638;27;20094;-83
2021/03/16 13:02:08;;;;;;;1.25;0.75;;;4.60;99.90;;;;;;4956563;27;20096;-83
2021/03/16 13:04:31;;;;;;;0.65;0.50;;;4.60;99.90;;;;;;4945717;27;20564;-81
2021/03/16 13:06:53;;;;;;;0.60;0.52;;;4.60;99.90;;;;;;4957734;27;20138;-81
2021/03/16 13:09:16;;;;;;;1.50;0.70;;;4.50;99.90;;;;;;4961096;27;20104;-82
2021/03/16 13:11:39;;;;;;;1.05;0.60;;;4.60;99.90;;;;;;4944478;27;20101;-83
2021/03/16 13:14:03;;;;;;;0.80;0.60;;;4.60;99.90;;;;;;4945769;27;20547;-82
2021/03/16 13:16:27;;;;;;;1.50;0.63;;;4.50;99.90;;;;;;4944898;27;20090;-82
2021/03/16 13:18:50;;;;;;;0.73;0.60;;;6.10;99.90;;;;;;4958904;27;20085;-80
2021/03/16 13:21:12;;;;;;;1.33;0.60;;;4.50;99.90;;;;;;4955785;27;20094;-81
2021/03/16 13:23:35;;;;;;;1.17;0.82;;;4.50;99.90;;;;;;4958054;27;20102;-82
2021/03/16 13:25:57;;;;;;;0.52;0.40;;;4.50;99.90;;;;;;4957202;27;20529;-81
2021/03/16 13:28:21;;;;;;;1.70;0.80;;;4.40;99.90;;;;;;4936843;27;20090;-81
2021/03/16 13:30:43;;;;;;;0.68;0.40;;;4.40;99.90;;;;;;4952539;27;20114;-81
2021/03/16 13:33:06;;;;;;;1.92;0.50;;;4.50;99.90;;;;;;4955910;27;20100;-81